EDT,Max TemperatureF,Mean TemperatureF,Min TemperatureF,Max Dew PointF,MeanDew PointF,Min DewpointF,Max Humidity, Mean Humidity, Min Humidity, Max Sea Level PressureIn, Mean Sea Level PressureIn, Min Sea Level PressureIn, Max VisibilityMiles, Mean VisibilityMiles, Min VisibilityMiles, Max Wind SpeedMPH, Mean Wind SpeedMPH, Max Gust SpeedMPH,PrecipitationIn, CloudCover, Events, WindDirDegrees
2013-7-1,82,77,72,75,72,70,93,86,79,30.02,29.92,29.84,10,7,1,9,6,14,1.36,6,Rain-Thunderstorm,179
2013-7-2,90,82,73,73,72,70,94,75,55,30.10,30.04,29.98,10,9,2,23,6,30,0.86,5,Rain,145
2013-7-3,91,82,73,74,72,70,93,75,56,30.14,30.10,30.07,10,9,1,23,7,31,0.21,3,Rain,130
2013-7-4,90,81,72,75,72,69,94,77,59,30.18,30.13,30.09,10,9,2,20,7,25,0.23,4,Rain,136
2013-7-5,89,80,71,75,72,69,94,77,59,30.17,30.14,30.10,10,9,1,31,4,44,0.44,3,Rain,113
2013-7-6,91,82,73,74,72,71,94,75,56,30.14,30.11,30.05,10,9,7,15,7,20,T,3,,114
2013-7-7,92,83,73,74,72,67,94,69,44,30.16,30.12,30.06,10,9,2,6,6,7,0.00,4,,97
2013-7-8,92,84,76,75,71,69,100,75,49,30.19,30.15,30.10,10,7,0,12,6,,0.00,2,Fog,102
2013-7-9,93,83,73,74,70,65,94,67,39,30.19,30.14,30.07,10,10,9,15,4,22,0.00,1,,106
2013-7-10,92,82,71,73,70,65,94,69,44,30.11,30.06,29.97,10,8,0,20,3,31,1.40,4,Fog-Rain-Thunderstorm,80
2013-7-11,90,81,72,74,72,69,94,73,52,30.05,29.98,29.91,10,8,0,18,5,23,1.09,3,Rain-Thunderstorm,181
2013-7-12,89,81,72,75,72,68,93,73,53,29.96,29.93,29.89,10,8,1,18,3,24,1.25,4,Rain-Thunderstorm,212
2013-7-13,86,79,72,74,72,70,94,80,65,30.01,29.96,29.90,10,7,0,20,4,28,1.14,5,Fog-Rain-Thunderstorm,140
2013-7-14,85,79,72,74,72,70,100,85,69,30.11,30.05,29.99,10,9,5,18,6,23,T,6,,98
2013-7-15,84,78,71,74,72,70,94,82,69,30.16,30.12,30.07,10,8,0,15,6,22,0.12,4,Fog-Rain,69
2013-7-16,91,82,73,74,72,70,94,75,55,30.20,30.17,30.14,10,9,5,31,8,40,T,3,Rain-Thunderstorm,73
2013-7-17,92,83,74,75,71,64,100,71,41,30.22,30.17,30.10,10,8,0,17,7,23,0.00,3,Fog,60
2013-7-18,91,82,73,74,70,66,93,70,47,30.15,30.11,30.04,10,9,3,15,4,20,0.00,2,,101
2013-7-19,88,80,72,73,71,68,93,73,53,30.14,30.10,30.05,10,7,0,24,7,32,1.75,4,Fog-Rain-Thunderstorm,162
2013-7-20,86,79,72,75,72,69,93,79,65,30.11,30.08,30.03,10,9,1,20,3,25,0.10,3,Rain-Thunderstorm,175
2013-7-21,87,80,72,77,73,70,93,76,59,30.12,30.08,30.04,10,9,2,17,4,23,0.26,2,Rain-Thunderstorm,208
2013-7-22,87,80,73,75,73,71,94,82,70,30.16,30.10,30.05,10,6,2,18,5,23,0.61,3,Rain-Thunderstorm,245
2013-7-23,85,79,73,75,73,69,94,84,74,30.07,30.01,29.94,10,8,0,18,6,26,1.88,4,Fog-Rain-Thunderstorm,227
2013-7-24,86,79,72,77,73,70,94,82,70,29.97,29.92,29.87,10,7,1,17,6,23,0.41,5,Rain,254
2013-7-25,87,80,73,74,72,71,94,78,61,29.98,29.92,29.86,10,10,5,17,6,21,0.00,3,,262
2013-7-26,95,85,74,76,73,68,100,72,44,30.02,29.99,29.96,10,6,0,10,2,14,T,3,Fog-Rain,58
2013-7-27,93,84,74,76,73,65,94,68,41,30.01,29.97,29.89,10,5,0,13,4,16,0.00,4,Fog,242
2013-7-28,89,81,73,73,71,68,94,77,59,30.06,30.00,29.94,10,8,4,17,3,20,T,2,,239
2013-7-29,93,82,71,74,71,67,93,67,41,30.15,30.10,30.04,10,9,4,13,2,16,0.00,2,,196
2013-7-30,93,84,75,75,73,71,94,73,52,30.18,30.14,30.10,10,8,5,13,2,15,T,2,,8
2013-7-31,92,82,72,75,72,70,94,73,52,30.13,30.09,30.01,10,6,0,16,3,22,3.55,3,Fog-Rain-Thunderstorm,142